Time,TemperatureF,DewpointF,PressureIn,WindDirection,WindDirectionDegrees,WindSpeedMPH,WindSpeedGustMPH,Humidity,HourlyPrecipIn,Conditions,Clouds,dailyrainin,SoftwareType,DateUTC
2013-09-14 00:00:00,56.6,51.8,29.71,NW,306,1.0,1.0,84,0.00,,,-99.99,VWS V12.06,2013-09-14 04:00:00,
2013-09-14 00:15:00,56.5,51.7,29.71,NNW,340,4.0,6.0,84,0.00,,,-99.99,VWS V12.06,2013-09-14 04:15:00,
2013-09-14 00:30:00,56.5,51.7,29.70,North,352,4.0,8.0,84,0.00,,,-99.99,VWS V12.06,2013-09-14 04:30:00,
2013-09-14 00:45:00,56.3,51.5,29.70,NNW,333,0.0,7.0,84,0.00,,,-99.99,VWS V12.06,2013-09-14 04:45:00,
2013-09-14 01:00:00,56.3,51.2,29.71,NNW,335,3.0,7.0,83,0.00,,,-99.99,VWS V12.06,2013-09-14 05:00:00,
2013-09-14 01:15:00,56.3,50.9,29.72,NNW,328,1.0,6.0,82,0.00,,,-99.99,VWS V12.06,2013-09-14 05:15:00,
2013-09-14 01:30:00,56.3,50.9,29.71,NNW,336,0.0,3.0,82,0.00,,,-99.99,VWS V12.06,2013-09-14 05:30:00,
2013-09-14 01:45:00,56.2,51.1,29.71,NNW,330,0.0,2.0,83,0.00,,,-99.99,VWS V12.06,2013-09-14 05:45:00,
2013-09-14 02:00:00,56.0,51.2,29.71,NW,312,1.0,3.0,84,0.00,,,-99.99,VWS V12.06,2013-09-14 06:00:00,
2013-09-14 02:15:00,55.7,51.3,29.72,NW,311,0.0,5.0,85,0.00,,,-99.99,VWS V12.06,2013-09-14 06:15:00,
2013-09-14 02:30:00,55.3,51.2,29.72,NNW,342,2.0,3.0,86,0.00,,,-99.99,VWS V12.06,2013-09-14 06:30:00,
2013-09-14 02:45:00,55.1,51.0,29.73,NW,325,3.0,3.0,86,0.00,,,-99.99,VWS V12.06,2013-09-14 06:45:00,
2013-09-14 03:00:00,54.8,50.7,29.73,NNW,337,0.0,2.0,86,0.00,,,-99.99,VWS V12.06,2013-09-14 07:00:00,
2013-09-14 03:15:00,54.7,50.6,29.73,NW,322,0.0,4.0,86,0.00,,,-99.99,VWS V12.06,2013-09-14 07:15:00,
2013-09-14 03:30:00,54.4,50.6,29.73,NNW,336,0.0,2.0,87,0.00,,,-99.99,VWS V12.06,2013-09-14 07:30:00,
2013-09-14 03:45:00,54.1,50.3,29.74,WNW,287,5.0,5.0,87,0.00,,,-99.99,VWS V12.06,2013-09-14 07:45:00,
2013-09-14 04:00:00,53.6,50.1,29.74,NNW,339,0.0,5.0,88,0.00,,,-99.99,VWS V12.06,2013-09-14 08:00:00,
2013-09-14 04:15:00,53.2,49.7,29.74,NW,323,0.0,1.0,88,0.00,,,-99.99,VWS V12.06,2013-09-14 08:15:00,
2013-09-14 04:30:00,52.9,49.8,29.74,NW,322,3.0,3.0,89,0.00,,,-99.99,VWS V12.06,2013-09-14 08:30:00,
2013-09-14 04:45:00,52.8,49.7,29.74,NNW,339,0.0,2.0,89,0.00,,,-99.99,VWS V12.06,2013-09-14 08:45:00,
2013-09-14 05:00:00,52.5,49.4,29.75,NNW,346,0.0,3.0,89,0.00,,,-99.99,VWS V12.06,2013-09-14 09:00:00,
2013-09-14 05:15:00,52.3,49.5,29.75,NW,326,0.0,1.0,90,0.00,,,-99.99,VWS V12.06,2013-09-14 09:15:00,
2013-09-14 05:30:00,52.3,49.2,29.76,NNW,332,0.0,2.0,89,0.00,,,-99.99,VWS V12.06,2013-09-14 09:30:00,
2013-09-14 05:45:00,52.3,49.2,29.76,NW,312,0.0,5.0,89,0.00,,,-99.99,VWS V12.06,2013-09-14 09:45:00,
2013-09-14 06:00:00,52.2,49.1,29.77,WNW,302,0.0,0.0,89,0.00,,,-99.99,VWS V12.06,2013-09-14 10:00:00,
2013-09-14 06:15:00,52.2,49.1,29.77,North,349,0.0,3.0,89,0.00,,,-99.99,VWS V12.06,2013-09-14 10:15:00,
2013-09-14 06:30:00,52.0,48.6,29.78,NNW,347,1.0,3.0,88,0.00,,,-99.99,VWS V12.06,2013-09-14 10:30:00,
2013-09-14 06:45:00,52.0,48.6,29.78,WNW,289,3.0,3.0,88,0.00,,,-99.99,VWS V12.06,2013-09-14 10:45:00,
2013-09-14 07:00:00,52.0,48.6,29.79,NW,322,0.0,0.0,88,0.00,,,-99.99,VWS V12.06,2013-09-14 11:00:00,
2013-09-14 07:15:00,52.2,48.8,29.79,North,0,3.0,3.0,88,0.00,,,-99.99,VWS V12.06,2013-09-14 11:15:00,
2013-09-14 07:30:00,52.3,48.5,29.80,NW,311,1.0,1.0,87,0.00,,,-99.99,VWS V12.06,2013-09-14 11:30:00,
2013-09-14 07:45:00,52.6,48.5,29.81,North,0,0.0,2.0,86,0.00,,,-99.99,VWS V12.06,2013-09-14 11:45:00,
2013-09-14 08:00:00,53.2,48.8,29.81,NNW,330,1.0,6.0,85,0.00,,,-99.99,VWS V12.06,2013-09-14 12:00:00,
2013-09-14 08:15:00,53.6,48.9,29.81,NNW,340,3.0,3.0,84,0.00,,,-99.99,VWS V12.06,2013-09-14 12:15:00,
2013-09-14 08:30:00,54.1,48.7,29.82,NW,313,0.0,6.0,82,0.00,,,-99.99,VWS V12.06,2013-09-14 12:30:00,
2013-09-14 08:45:00,54.7,48.7,29.82,NNW,337,1.0,12.0,80,0.00,,,-99.99,VWS V12.06,2013-09-14 12:45:00,
2013-09-14 09:00:00,55.7,49.3,29.82,North,356,0.0,7.0,79,0.00,,,-99.99,VWS V12.06,2013-09-14 13:00:00,
2013-09-14 09:15:00,56.6,49.1,29.83,NNW,340,2.0,6.0,76,0.00,,,-99.99,VWS V12.06,2013-09-14 13:15:00,
2013-09-14 09:30:00,57.0,49.5,29.83,WNW,299,8.0,8.0,76,0.00,,,-99.99,VWS V12.06,2013-09-14 13:30:00,
2013-09-14 09:45:00,57.2,49.4,29.84,NW,315,1.0,6.0,75,0.00,,,-99.99,VWS V12.06,2013-09-14 13:45:00,
2013-09-14 10:00:00,58.7,49.7,29.84,NNW,344,3.0,7.0,72,0.00,,,-99.99,VWS V12.06,2013-09-14 14:00:00,
2013-09-14 10:15:00,58.3,49.3,29.85,North,0,2.0,10.0,72,0.00,,,-99.99,VWS V12.06,2013-09-14 14:15:00,
2013-09-14 10:30:00,57.2,48.6,29.86,WNW,287,2.0,7.0,73,0.00,,,-99.99,VWS V12.06,2013-09-14 14:30:00,
2013-09-14 10:45:00,57.5,48.9,29.86,NW,319,3.0,7.0,73,0.00,,,-99.99,VWS V12.06,2013-09-14 14:45:00,
2013-09-14 11:00:00,57.8,48.8,29.86,NW,322,1.0,8.0,72,0.00,,,-99.99,VWS V12.06,2013-09-14 15:00:00,
2013-09-14 11:15:00,58.1,49.1,29.86,WNW,302,3.0,7.0,72,0.00,,,-99.99,VWS V12.06,2013-09-14 15:15:00,
2013-09-14 11:30:00,58.7,48.6,29.86,NW,319,6.0,8.0,69,0.00,,,-99.99,VWS V12.06,2013-09-14 15:30:00,
2013-09-14 11:45:00,60.5,50.7,29.86,NNW,340,0.0,3.0,70,0.00,,,-99.99,VWS V12.06,2013-09-14 15:45:00,
2013-09-14 12:00:00,61.0,49.2,29.85,NNW,328,2.0,10.0,65,0.00,,,-99.99,VWS V12.06,2013-09-14 16:00:00,
2013-09-14 12:15:00,61.8,50.3,29.86,WNW,294,2.0,4.0,66,0.00,,,-99.99,VWS V12.06,2013-09-14 16:15:00,
2013-09-14 12:30:00,62.3,50.0,29.86,NNW,342,1.0,7.0,64,0.00,,,-99.99,VWS V12.06,2013-09-14 16:30:00,
2013-09-14 12:45:00,63.4,49.3,29.86,NNW,333,1.0,14.0,60,0.00,,,-99.99,VWS V12.06,2013-09-14 16:45:00,
2013-09-14 13:00:00,64.3,51.5,29.85,North,11,0.0,0.0,63,0.00,,,-99.99,VWS V12.06,2013-09-14 17:00:00,
2013-09-14 13:15:00,64.5,50.8,29.85,WNW,285,0.0,3.0,61,0.00,,,-99.99,VWS V12.06,2013-09-14 17:15:00,
2013-09-14 13:30:00,63.4,51.0,29.86,NW,326,4.0,6.0,64,0.00,,,-99.99,VWS V12.06,2013-09-14 17:30:00,
2013-09-14 13:45:00,63.9,50.6,29.86,NNW,329,0.0,11.0,62,0.00,,,-99.99,VWS V12.06,2013-09-14 17:45:00,
2013-09-14 14:00:00,65.0,50.3,29.85,NW,308,2.0,4.0,59,0.00,,,-99.99,VWS V12.06,2013-09-14 18:00:00,
2013-09-14 14:15:00,64.2,51.4,29.85,North,354,0.0,0.0,63,0.00,,,-99.99,VWS V12.06,2013-09-14 18:15:00,
2013-09-14 14:30:00,64.5,50.8,29.86,NW,323,0.0,5.0,61,0.00,,,-99.99,VWS V12.06,2013-09-14 18:30:00,
2013-09-14 14:45:00,65.2,50.5,29.86,NNW,344,2.0,3.0,59,0.00,,,-99.99,VWS V12.06,2013-09-14 18:45:00,
2013-09-14 15:00:00,63.9,49.8,29.86,NNW,332,4.0,10.0,60,0.00,,,-99.99,VWS V12.06,2013-09-14 19:00:00,
2013-09-14 15:15:00,63.4,49.7,29.87,NNW,328,0.0,6.0,61,0.00,,,-99.99,VWS V12.06,2013-09-14 19:15:00,
2013-09-14 15:30:00,63.4,50.6,29.87,NNW,343,2.0,7.0,63,0.00,,,-99.99,VWS V12.06,2013-09-14 19:30:00,
2013-09-14 15:45:00,63.7,50.9,29.87,NNW,343,0.0,4.0,63,0.00,,,-99.99,VWS V12.06,2013-09-14 19:45:00,
2013-09-14 16:00:00,62.9,50.1,29.87,NNW,344,0.0,6.0,63,0.00,,,-99.99,VWS V12.06,2013-09-14 20:00:00,
2013-09-14 16:15:00,62.1,51.0,29.88,NNW,335,1.0,2.0,67,0.00,,,-99.99,VWS V12.06,2013-09-14 20:15:00,
2013-09-14 16:30:00,62.0,50.5,29.89,NNW,330,0.0,7.0,66,0.00,,,-99.99,VWS V12.06,2013-09-14 20:30:00,
2013-09-14 16:45:00,62.9,50.5,29.89,North,0,0.0,2.0,64,0.00,,,-99.99,VWS V12.06,2013-09-14 20:45:00,
2013-09-14 17:00:00,62.6,50.3,29.89,NNW,344,0.0,0.0,64,0.00,,,-99.99,VWS V12.06,2013-09-14 21:00:00,
2013-09-14 17:15:00,62.0,50.5,29.90,NW,316,3.0,7.0,66,0.00,,,-99.99,VWS V12.06,2013-09-14 21:15:00,
2013-09-14 17:30:00,62.0,50.9,29.90,NNW,328,0.0,3.0,67,0.00,,,-99.99,VWS V12.06,2013-09-14 21:30:00,
2013-09-14 17:45:00,62.1,51.4,29.91,NNW,328,4.0,4.0,68,0.00,,,-99.99,VWS V12.06,2013-09-14 21:45:00,
2013-09-14 18:00:00,61.6,51.0,29.92,NNW,342,0.0,3.0,68,0.00,,,-99.99,VWS V12.06,2013-09-14 22:00:00,
2013-09-14 18:15:00,61.0,51.2,29.92,NW,304,1.0,1.0,70,0.00,,,-99.99,VWS V12.06,2013-09-14 22:15:00,
2013-09-14 18:30:00,60.7,52.0,29.93,WNW,298,0.0,1.0,73,0.00,,,-99.99,VWS V12.06,2013-09-14 22:30:00,
2013-09-14 18:45:00,60.1,51.8,29.93,NW,325,0.0,4.0,74,0.00,,,-99.99,VWS V12.06,2013-09-14 22:45:00,
2013-09-14 19:00:00,59.6,52.0,29.94,NNW,329,0.0,3.0,76,0.00,,,-99.99,VWS V12.06,2013-09-14 23:00:00,
2013-09-14 19:15:00,59.3,51.4,29.95,NNW,330,0.0,2.0,75,0.00,,,-99.99,VWS V12.06,2013-09-14 23:15:00,
2013-09-14 19:30:00,58.9,50.3,29.95,NNW,347,0.0,0.0,73,0.00,,,-99.99,VWS V12.06,2013-09-14 23:30:00,
2013-09-14 19:45:00,58.7,50.5,29.96,NW,322,0.0,0.0,74,0.00,,,-99.99,VWS V12.06,2013-09-14 23:45:00,
2013-09-14 20:00:00,58.4,50.2,29.97,NW,322,0.0,0.0,74,0.00,,,-99.99,VWS V12.06,2013-09-15 00:00:00,
2013-09-14 20:15:00,58.0,49.8,29.98,NW,319,0.0,1.0,74,0.00,,,-99.99,VWS V12.06,2013-09-15 00:15:00,
2013-09-14 20:30:00,57.3,49.5,29.97,NW,319,0.0,2.0,75,0.00,,,-99.99,VWS V12.06,2013-09-15 00:30:00,
2013-09-14 20:45:00,56.5,49.7,29.98,NW,319,0.0,1.0,78,0.00,,,-99.99,VWS V12.06,2013-09-15 00:45:00,
2013-09-14 21:00:00,55.7,49.6,29.98,NW,319,0.0,2.0,80,0.00,,,-99.99,VWS V12.06,2013-09-15 01:00:00,
2013-09-14 21:15:00,55.1,49.7,29.98,NW,319,0.0,0.0,82,0.00,,,-99.99,VWS V12.06,2013-09-15 01:15:00,
2013-09-14 21:30:00,54.5,49.8,29.98,NW,319,0.0,0.0,84,0.00,,,-99.99,VWS V12.06,2013-09-15 01:30:00,
2013-09-14 21:45:00,54.1,49.4,29.98,NW,319,0.0,0.0,84,0.00,,,-99.99,VWS V12.06,2013-09-15 01:45:00,
2013-09-14 22:00:00,53.6,49.5,29.98,NW,319,0.0,0.0,86,0.00,,,-99.99,VWS V12.06,2013-09-15 02:00:00,
2013-09-14 22:15:00,53.3,49.5,29.99,NW,319,0.0,0.0,87,0.00,,,-99.99,VWS V12.06,2013-09-15 02:15:00,
2013-09-14 22:30:00,53.2,49.4,29.99,NW,319,0.0,0.0,87,0.00,,,-99.99,VWS V12.06,2013-09-15 02:30:00,
2013-09-14 22:45:00,53.1,49.7,29.99,NW,319,0.0,0.0,88,0.00,,,-99.99,VWS V12.06,2013-09-15 02:45:00,
2013-09-14 23:00:00,52.8,49.3,29.99,NW,319,0.0,0.0,88,0.00,,,-99.99,VWS V12.06,2013-09-15 03:00:00,
2013-09-14 23:15:00,52.8,49.3,30.00,NW,319,0.0,0.0,88,0.00,,,-99.99,VWS V12.06,2013-09-15 03:15:00,
2013-09-14 23:30:00,52.8,49.0,30.00,North,350,0.0,0.0,87,0.00,,,-99.99,VWS V12.06,2013-09-15 03:30:00,
2013-09-14 23:45:00,52.6,48.5,30.00,North,350,0.0,0.0,86,0.00,,,-99.99,VWS V12.06,2013-09-15 03:45:00,